Terminal Aerodrome Forecast
Issued by NWS

Current Version | Previous Version | Graphics & Text | Print | Product List | Glossary On
Versions: 1 2 3 4 5 6 7 8 9 10 11 12 13 14 15 16 17
000
FTUS41 KPBZ 251002 AAB
TAFHLG
TAF AMD
KHLG 251002Z 2510/2606 07005KT P6SM OVC080
      TEMPO 2511/2513 6SM -RA BKN025
     FM252100 09005KT 5SM -SHRA OVC030
     FM260300 VRB05KT P6SM -SHRA OVC050=

USA.gov is the U.S. government's official web portal to all federal, state and local government web resources and services.